sensor_id;sensor_type;location;lat;lon;timestamp;pressure;altitude;pressure_sealevel;temperature;humidity
44441;BME280;30146;52.268;20.944;2023-04-30T00:02:25;100064.66;;;13.50;57.21
44441;BME280;30146;52.268;20.944;2023-04-30T00:04:56;100063.09;;;13.51;57.37
44441;BME280;30146;52.268;20.944;2023-04-30T00:07:27;100065.83;;;13.52;57.45
44441;BME280;30146;52.268;20.944;2023-04-30T00:09:57;100063.75;;;13.52;57.56
44441;BME280;30146;52.268;20.944;2023-04-30T00:12:28;100064.41;;;13.53;57.74
44441;BME280;30146;52.268;20.944;2023-04-30T00:14:59;100064.58;;;13.53;57.93
44441;BME280;30146;52.268;20.944;2023-04-30T00:17:30;100062.52;;;13.53;58.11
44441;BME280;30146;52.268;20.944;2023-04-30T00:20:01;100065.09;;;13.54;58.15
44441;BME280;30146;52.268;20.944;2023-04-30T00:22:34;100069.20;;;13.54;58.43
44441;BME280;30146;52.268;20.944;2023-04-30T00:25:06;100070.58;;;13.54;58.34
44441;BME280;30146;52.268;20.944;2023-04-30T00:27:37;100070.73;;;13.55;58.54
44441;BME280;30146;52.268;20.944;2023-04-30T00:30:10;100071.94;;;13.54;58.59
44441;BME280;30146;52.268;20.944;2023-04-30T00:32:42;100074.68;;;13.55;58.71
44441;BME280;30146;52.268;20.944;2023-04-30T00:35:14;100077.81;;;13.54;58.74
44441;BME280;30146;52.268;20.944;2023-04-30T00:37:45;100076.95;;;13.53;58.84
44441;BME280;30146;52.268;20.944;2023-04-30T00:40:16;100080.90;;;13.53;59.02
44441;BME280;30146;52.268;20.944;2023-04-30T00:42:47;100081.29;;;13.51;59.01
44441;BME280;30146;52.268;20.944;2023-04-30T00:45:18;100078.06;;;13.50;59.12
44441;BME280;30146;52.268;20.944;2023-04-30T00:47:50;100080.32;;;13.48;59.30
44441;BME280;30146;52.268;20.944;2023-04-30T00:50:21;100077.77;;;13.48;59.53
44441;BME280;30146;52.268;20.944;2023-04-30T00:52:53;100085.66;;;13.48;59.59
44441;BME280;30146;52.268;20.944;2023-04-30T00:55:24;100084.82;;;13.47;59.78
44441;BME280;30146;52.268;20.944;2023-04-30T00:57:56;100082.09;;;13.47;59.84
44441;BME280;30146;52.268;20.944;2023-04-30T01:00:27;100088.45;;;13.47;59.83
44441;BME280;30146;52.268;20.944;2023-04-30T01:02:59;100086.08;;;13.45;59.89
44441;BME280;30146;52.268;20.944;2023-04-30T01:05:30;100086.27;;;13.44;60.07
44441;BME280;30146;52.268;20.944;2023-04-30T01:08:01;100084.05;;;13.44;60.13
44441;BME280;30146;52.268;20.944;2023-04-30T01:10:40;100082.38;;;13.42;60.17
44441;BME280;30146;52.268;20.944;2023-04-30T01:13:15;100083.40;;;13.42;60.29
44441;BME280;30146;52.268;20.944;2023-04-30T01:15:53;100085.00;;;13.40;60.36
44441;BME280;30146;52.268;20.944;2023-04-30T01:18:30;100085.36;;;13.40;60.42
44441;BME280;30146;52.268;20.944;2023-04-30T01:21:04;100088.80;;;13.39;60.49
44441;BME280;30146;52.268;20.944;2023-04-30T01:23:51;100087.11;;;13.38;60.55
44441;BME280;30146;52.268;20.944;2023-04-30T01:26:40;100093.66;;;13.37;60.74
44441;BME280;30146;52.268;20.944;2023-04-30T01:29:18;100095.05;;;13.36;60.67
44441;BME280;30146;52.268;20.944;2023-04-30T01:31:49;100097.14;;;13.35;60.77
44441;BME280;30146;52.268;20.944;2023-04-30T01:34:20;100097.71;;;13.33;60.83
44441;BME280;30146;52.268;20.944;2023-04-30T01:36:58;100103.08;;;13.31;60.91
44441;BME280;30146;52.268;20.944;2023-04-30T01:39:43;100101.70;;;13.30;61.00
44441;BME280;30146;52.268;20.944;2023-04-30T01:42:21;100102.79;;;13.28;61.08
44441;BME280;30146;52.268;20.944;2023-04-30T01:45:11;100104.35;;;13.26;61.11
44441;BME280;30146;52.268;20.944;2023-04-30T01:47:49;100103.23;;;13.24;61.22
44441;BME280;30146;52.268;20.944;2023-04-30T01:50:28;100101.23;;;13.21;61.31
44441;BME280;30146;52.268;20.944;2023-04-30T01:53:08;100104.85;;;13.20;61.36
44441;BME280;30146;52.268;20.944;2023-04-30T01:59:01;100111.64;;;13.16;61.49
44441;BME280;30146;52.268;20.944;2023-04-30T02:01:33;100111.15;;;13.15;61.63
44441;BME280;30146;52.268;20.944;2023-04-30T02:04:18;100109.74;;;13.17;61.67
44441;BME280;30146;52.268;20.944;2023-04-30T02:07:00;100112.50;;;13.16;61.67
44441;BME280;30146;52.268;20.944;2023-04-30T02:09:33;100112.51;;;13.16;61.74
44441;BME280;30146;52.268;20.944;2023-04-30T02:12:07;100116.61;;;13.17;61.73
44441;BME280;30146;52.268;20.944;2023-04-30T02:14:38;100116.47;;;13.16;61.87
44441;BME280;30146;52.268;20.944;2023-04-30T02:17:32;100118.52;;;13.16;61.91
44441;BME280;30146;52.268;20.944;2023-04-30T02:20:11;100117.64;;;13.16;61.92
44441;BME280;30146;52.268;20.944;2023-04-30T02:22:43;100120.92;;;13.16;62.01
44441;BME280;30146;52.268;20.944;2023-04-30T02:25:14;100119.05;;;13.15;62.03
44441;BME280;30146;52.268;20.944;2023-04-30T02:27:45;100124.02;;;13.15;62.05
44441;BME280;30146;52.268;20.944;2023-04-30T02:30:15;100129.71;;;13.14;62.00
44441;BME280;30146;52.268;20.944;2023-04-30T02:32:48;100127.19;;;13.12;62.09
44441;BME280;30146;52.268;20.944;2023-04-30T02:35:19;100133.56;;;13.11;62.13
44441;BME280;30146;52.268;20.944;2023-04-30T02:37:51;100136.66;;;13.10;62.14
44441;BME280;30146;52.268;20.944;2023-04-30T02:40:22;100137.53;;;13.10;62.26
44441;BME280;30146;52.268;20.944;2023-04-30T02:42:53;100141.32;;;13.09;62.31
44441;BME280;30146;52.268;20.944;2023-04-30T02:45:25;100143.22;;;13.08;62.31
44441;BME280;30146;52.268;20.944;2023-04-30T02:47:57;100148.41;;;13.07;62.28
44441;BME280;30146;52.268;20.944;2023-04-30T02:50:27;100153.23;;;13.07;62.35
44441;BME280;30146;52.268;20.944;2023-04-30T02:52:58;100152.76;;;13.05;62.29
44441;BME280;30146;52.268;20.944;2023-04-30T02:55:29;100156.59;;;13.02;62.18
44441;BME280;30146;52.268;20.944;2023-04-30T02:58:01;100160.48;;;12.97;62.09
44441;BME280;30146;52.268;20.944;2023-04-30T03:00:32;100167.44;;;12.93;61.92
44441;BME280;30146;52.268;20.944;2023-04-30T03:03:03;100173.42;;;12.86;61.78
44441;BME280;30146;52.268;20.944;2023-04-30T03:05:35;100172.56;;;12.78;61.63
44441;BME280;30146;52.268;20.944;2023-04-30T03:08:06;100176.13;;;12.70;61.51
44441;BME280;30146;52.268;20.944;2023-04-30T03:10:36;100178.52;;;12.63;61.43
44441;BME280;30146;52.268;20.944;2023-04-30T03:13:07;100175.05;;;12.57;61.51
44441;BME280;30146;52.268;20.944;2023-04-30T03:15:38;100182.88;;;12.51;61.50
44441;BME280;30146;52.268;20.944;2023-04-30T03:18:10;100189.31;;;12.47;61.67
44441;BME280;30146;52.268;20.944;2023-04-30T03:20:41;100193.32;;;12.44;61.83
44441;BME280;30146;52.268;20.944;2023-04-30T03:23:12;100189.40;;;12.41;61.80
44441;BME280;30146;52.268;20.944;2023-04-30T03:25:43;100190.13;;;12.40;61.90
44441;BME280;30146;52.268;20.944;2023-04-30T03:28:14;100190.34;;;12.38;61.91
44441;BME280;30146;52.268;20.944;2023-04-30T03:30:45;100194.31;;;12.36;62.02
44441;BME280;30146;52.268;20.944;2023-04-30T03:33:15;100202.08;;;12.33;61.85
44441;BME280;30146;52.268;20.944;2023-04-30T03:35:47;100207.59;;;12.32;61.96
44441;BME280;30146;52.268;20.944;2023-04-30T03:38:19;100209.55;;;12.28;61.99
44441;BME280;30146;52.268;20.944;2023-04-30T03:40:50;100217.33;;;12.25;62.01
44441;BME280;30146;52.268;20.944;2023-04-30T03:43:21;100223.91;;;12.22;61.92
44441;BME280;30146;52.268;20.944;2023-04-30T03:45:51;100226.70;;;12.18;61.77
44441;BME280;30146;52.268;20.944;2023-04-30T03:48:23;100230.92;;;12.11;61.44
44441;BME280;30146;52.268;20.944;2023-04-30T03:50:55;100238.41;;;12.05;61.23
44441;BME280;30146;52.268;20.944;2023-04-30T03:53:26;100242.63;;;11.99;61.19
44441;BME280;30146;52.268;20.944;2023-04-30T03:55:57;100245.96;;;11.93;61.18
44441;BME280;30146;52.268;20.944;2023-04-30T03:58:28;100251.70;;;11.87;60.79
44441;BME280;30146;52.268;20.944;2023-04-30T04:00:59;100258.14;;;11.80;60.71
44441;BME280;30146;52.268;20.944;2023-04-30T04:03:30;100261.64;;;11.75;60.53
44441;BME280;30146;52.268;20.944;2023-04-30T04:06:03;100262.75;;;11.70;60.15
44441;BME280;30146;52.268;20.944;2023-04-30T04:08:34;100272.63;;;11.62;59.72
44441;BME280;30146;52.268;20.944;2023-04-30T04:11:06;100277.88;;;11.54;59.38
44441;BME280;30146;52.268;20.944;2023-04-30T04:13:37;100286.89;;;11.46;59.24
44441;BME280;30146;52.268;20.944;2023-04-30T04:16:08;100292.46;;;11.40;58.97
44441;BME280;30146;52.268;20.944;2023-04-30T04:18:39;100296.13;;;11.34;58.86
44441;BME280;30146;52.268;20.944;2023-04-30T04:21:10;100297.55;;;11.30;58.86
44441;BME280;30146;52.268;20.944;2023-04-30T04:23:41;100302.03;;;11.27;58.79
44441;BME280;30146;52.268;20.944;2023-04-30T04:26:12;100302.59;;;11.24;58.83
44441;BME280;30146;52.268;20.944;2023-04-30T04:28:43;100305.86;;;11.22;58.72
44441;BME280;30146;52.268;20.944;2023-04-30T04:31:14;100308.29;;;11.19;58.71
44441;BME280;30146;52.268;20.944;2023-04-30T04:33:45;100308.82;;;11.18;58.74
44441;BME280;30146;52.268;20.944;2023-04-30T04:36:16;100312.96;;;11.16;58.73
44441;BME280;30146;52.268;20.944;2023-04-30T04:38:49;100316.57;;;11.14;58.58
44441;BME280;30146;52.268;20.944;2023-04-30T04:41:22;100321.54;;;11.13;58.57
44441;BME280;30146;52.268;20.944;2023-04-30T04:43:53;100327.00;;;11.15;58.69
44441;BME280;30146;52.268;20.944;2023-04-30T04:46:26;100335.04;;;11.16;58.53
44441;BME280;30146;52.268;20.944;2023-04-30T04:48:58;100338.77;;;11.17;58.49
44441;BME280;30146;52.268;20.944;2023-04-30T04:51:29;100342.16;;;11.18;58.59
44441;BME280;30146;52.268;20.944;2023-04-30T04:54:00;100344.22;;;11.20;58.31
44441;BME280;30146;52.268;20.944;2023-04-30T04:56:32;100349.67;;;11.22;58.40
44441;BME280;30146;52.268;20.944;2023-04-30T04:59:03;100350.16;;;11.24;58.29
44441;BME280;30146;52.268;20.944;2023-04-30T05:01:33;100353.89;;;11.26;58.40
44441;BME280;30146;52.268;20.944;2023-04-30T05:04:05;100359.52;;;11.29;58.57
44441;BME280;30146;52.268;20.944;2023-04-30T05:06:38;100360.31;;;11.33;58.57
44441;BME280;30146;52.268;20.944;2023-04-30T05:09:09;100361.64;;;11.36;58.41
44441;BME280;30146;52.268;20.944;2023-04-30T05:11:40;100363.33;;;11.38;58.38
44441;BME280;30146;52.268;20.944;2023-04-30T05:14:12;100365.71;;;11.40;58.38
44441;BME280;30146;52.268;20.944;2023-04-30T05:16:43;100373.23;;;11.41;58.16
44441;BME280;30146;52.268;20.944;2023-04-30T05:19:14;100376.65;;;11.40;58.19
44441;BME280;30146;52.268;20.944;2023-04-30T05:21:44;100379.73;;;11.42;58.22
44441;BME280;30146;52.268;20.944;2023-04-30T05:24:15;100384.51;;;11.42;57.98
44441;BME280;30146;52.268;20.944;2023-04-30T05:26:46;100387.91;;;11.43;58.18
44441;BME280;30146;52.268;20.944;2023-04-30T05:29:17;100391.67;;;11.44;57.98
44441;BME280;30146;52.268;20.944;2023-04-30T05:31:47;100393.37;;;11.45;58.11
44441;BME280;30146;52.268;20.944;2023-04-30T05:34:18;100400.01;;;11.48;58.05
44441;BME280;30146;52.268;20.944;2023-04-30T05:36:49;100404.24;;;11.51;58.37
44441;BME280;30146;52.268;20.944;2023-04-30T05:39:20;100405.73;;;11.57;58.34
44441;BME280;30146;52.268;20.944;2023-04-30T05:41:51;100406.67;;;11.62;58.29
44441;BME280;30146;52.268;20.944;2023-04-30T05:44:22;100412.08;;;11.68;58.45
44441;BME280;30146;52.268;20.944;2023-04-30T05:46:52;100414.23;;;11.74;58.34
44441;BME280;30146;52.268;20.944;2023-04-30T05:49:23;100419.13;;;11.79;58.25
44441;BME280;30146;52.268;20.944;2023-04-30T05:51:54;100424.56;;;11.83;58.17
44441;BME280;30146;52.268;20.944;2023-04-30T05:54:25;100423.66;;;11.87;58.23
44441;BME280;30146;52.268;20.944;2023-04-30T05:56:55;100424.81;;;11.92;58.20
44441;BME280;30146;52.268;20.944;2023-04-30T05:59:26;100426.29;;;11.97;58.13
44441;BME280;30146;52.268;20.944;2023-04-30T06:01:57;100426.41;;;12.01;58.09
44441;BME280;30146;52.268;20.944;2023-04-30T06:04:28;100427.72;;;12.05;57.89
44441;BME280;30146;52.268;20.944;2023-04-30T06:07:01;100432.42;;;12.11;58.04
44441;BME280;30146;52.268;20.944;2023-04-30T06:09:32;100435.84;;;12.24;58.23
44441;BME280;30146;52.268;20.944;2023-04-30T06:12:03;100437.19;;;12.48;58.27
44441;BME280;30146;52.268;20.944;2023-04-30T06:14:35;100437.05;;;12.88;58.55
44441;BME280;30146;52.268;20.944;2023-04-30T06:17:11;100435.11;;;13.29;58.30
44441;BME280;30146;52.268;20.944;2023-04-30T06:19:42;100433.80;;;13.93;58.43
44441;BME280;30146;52.268;20.944;2023-04-30T06:22:17;100433.88;;;14.64;58.12
44441;BME280;30146;52.268;20.944;2023-04-30T06:24:48;100435.83;;;15.66;58.27
44441;BME280;30146;52.268;20.944;2023-04-30T06:27:19;100437.20;;;16.36;56.56
44441;BME280;30146;52.268;20.944;2023-04-30T06:29:49;100444.83;;;16.51;54.72
44441;BME280;30146;52.268;20.944;2023-04-30T06:32:20;100443.44;;;16.51;53.75
44441;BME280;30146;52.268;20.944;2023-04-30T06:34:51;100443.38;;;16.43;52.95
44441;BME280;30146;52.268;20.944;2023-04-30T06:37:22;100446.97;;;16.33;52.73
44441;BME280;30146;52.268;20.944;2023-04-30T06:39:53;100445.05;;;16.55;53.25
44441;BME280;30146;52.268;20.944;2023-04-30T06:42:24;100443.72;;;17.49;54.07
44441;BME280;30146;52.268;20.944;2023-04-30T06:44:55;100443.27;;;18.48;53.45
44441;BME280;30146;52.268;20.944;2023-04-30T06:47:25;100440.27;;;19.04;52.20
44441;BME280;30146;52.268;20.944;2023-04-30T06:49:59;100444.71;;;19.41;51.16
44441;BME280;30146;52.268;20.944;2023-04-30T06:52:30;100444.91;;;20.27;50.70
44441;BME280;30146;52.268;20.944;2023-04-30T06:55:01;100448.33;;;21.26;49.77
44441;BME280;30146;52.268;20.944;2023-04-30T06:57:32;100444.90;;;21.75;48.22
44441;BME280;30146;52.268;20.944;2023-04-30T07:00:03;100451.45;;;21.95;46.06
44441;BME280;30146;52.268;20.944;2023-04-30T07:02:35;100451.27;;;22.15;44.71
44441;BME280;30146;52.268;20.944;2023-04-30T07:05:09;100453.05;;;22.75;44.23
44441;BME280;30146;52.268;20.944;2023-04-30T07:07:43;100450.63;;;23.51;43.54
44441;BME280;30146;52.268;20.944;2023-04-30T07:10:15;100452.33;;;24.16;42.21
44441;BME280;30146;52.268;20.944;2023-04-30T07:12:48;100457.40;;;24.80;41.40
44441;BME280;30146;52.268;20.944;2023-04-30T07:15:19;100457.04;;;25.40;40.92
44441;BME280;30146;52.268;20.944;2023-04-30T07:17:50;100457.22;;;25.92;40.18
44441;BME280;30146;52.268;20.944;2023-04-30T07:20:21;100458.30;;;25.91;39.20
44441;BME280;30146;52.268;20.944;2023-04-30T07:22:52;100467.77;;;25.59;38.27
44441;BME280;30146;52.268;20.944;2023-04-30T07:25:24;100472.48;;;25.05;37.00
44441;BME280;30146;52.268;20.944;2023-04-30T07:27:55;100476.65;;;24.72;37.15
44441;BME280;30146;52.268;20.944;2023-04-30T07:30:26;100473.86;;;24.59;37.62
44441;BME280;30146;52.268;20.944;2023-04-30T07:32:56;100476.88;;;24.69;37.97
44441;BME280;30146;52.268;20.944;2023-04-30T07:35:27;100476.53;;;24.76;37.86
44441;BME280;30146;52.268;20.944;2023-04-30T07:38:08;100472.05;;;24.86;37.72
44441;BME280;30146;52.268;20.944;2023-04-30T07:40:39;100479.81;;;25.01;37.66
44441;BME280;30146;52.268;20.944;2023-04-30T07:43:10;100482.70;;;25.04;36.86
44441;BME280;30146;52.268;20.944;2023-04-30T07:45:41;100479.81;;;25.00;36.32
44441;BME280;30146;52.268;20.944;2023-04-30T07:48:13;100484.70;;;25.03;36.33
44441;BME280;30146;52.268;20.944;2023-04-30T07:50:44;100489.50;;;25.10;36.31
44441;BME280;30146;52.268;20.944;2023-04-30T07:53:19;100485.78;;;25.10;35.53
44441;BME280;30146;52.268;20.944;2023-04-30T07:55:51;100491.23;;;25.05;35.22
44441;BME280;30146;52.268;20.944;2023-04-30T07:58:21;100493.23;;;25.01;35.05
44441;BME280;30146;52.268;20.944;2023-04-30T08:00:52;100494.48;;;24.93;34.43
44441;BME280;30146;52.268;20.944;2023-04-30T08:03:23;100491.77;;;24.81;33.97
44441;BME280;30146;52.268;20.944;2023-04-30T08:05:54;100499.15;;;24.70;33.91
44441;BME280;30146;52.268;20.944;2023-04-30T08:08:25;100497.84;;;24.61;33.90
44441;BME280;30146;52.268;20.944;2023-04-30T08:10:59;100502.98;;;24.51;33.80
44441;BME280;30146;52.268;20.944;2023-04-30T08:13:30;100505.29;;;24.45;33.58
44441;BME280;30146;52.268;20.944;2023-04-30T08:16:00;100504.49;;;24.38;33.41
44441;BME280;30146;52.268;20.944;2023-04-30T08:18:31;100505.09;;;24.35;33.50
44441;BME280;30146;52.268;20.944;2023-04-30T08:21:02;100506.15;;;24.35;33.58
44441;BME280;30146;52.268;20.944;2023-04-30T08:23:33;100511.04;;;24.26;33.14
44441;BME280;30146;52.268;20.944;2023-04-30T08:26:04;100520.38;;;24.14;33.08
44441;BME280;30146;52.268;20.944;2023-04-30T08:28:35;100516.60;;;24.08;32.95
44441;BME280;30146;52.268;20.944;2023-04-30T08:31:06;100515.70;;;23.99;32.70
44441;BME280;30146;52.268;20.944;2023-04-30T08:33:38;100509.67;;;23.98;32.88
44441;BME280;30146;52.268;20.944;2023-04-30T08:36:09;100519.08;;;23.93;32.26
44441;BME280;30146;52.268;20.944;2023-04-30T08:38:41;100517.88;;;23.81;31.79
44441;BME280;30146;52.268;20.944;2023-04-30T08:41:15;100523.20;;;23.71;32.03
44441;BME280;30146;52.268;20.944;2023-04-30T08:43:54;100530.23;;;23.68;32.19
44441;BME280;30146;52.268;20.944;2023-04-30T08:46:27;100530.09;;;23.67;32.31
44441;BME280;30146;52.268;20.944;2023-04-30T08:48:59;100532.66;;;23.59;31.83
44441;BME280;30146;52.268;20.944;2023-04-30T08:51:33;100531.61;;;23.54;32.23
44441;BME280;30146;52.268;20.944;2023-04-30T08:54:12;100534.16;;;23.46;31.59
44441;BME280;30146;52.268;20.944;2023-04-30T08:56:45;100537.12;;;23.34;31.39
44441;BME280;30146;52.268;20.944;2023-04-30T08:59:16;100539.35;;;23.23;31.12
44441;BME280;30146;52.268;20.944;2023-04-30T09:01:48;100541.16;;;23.16;31.03
44441;BME280;30146;52.268;20.944;2023-04-30T09:04:24;100545.36;;;23.10;30.76
44441;BME280;30146;52.268;20.944;2023-04-30T09:07:00;100545.55;;;23.00;30.56
44441;BME280;30146;52.268;20.944;2023-04-30T09:09:39;100547.45;;;22.95;30.45
44441;BME280;30146;52.268;20.944;2023-04-30T09:12:17;100547.63;;;22.88;30.17
44441;BME280;30146;52.268;20.944;2023-04-30T09:15:02;100552.54;;;22.82;29.91
44441;BME280;30146;52.268;20.944;2023-04-30T09:17:35;100559.20;;;22.69;29.67
44441;BME280;30146;52.268;20.944;2023-04-30T09:20:11;100564.02;;;22.63;29.89
44441;BME280;30146;52.268;20.944;2023-04-30T09:22:42;100564.44;;;22.65;29.89
44441;BME280;30146;52.268;20.944;2023-04-30T09:25:13;100563.88;;;22.63;29.55
44441;BME280;30146;52.268;20.944;2023-04-30T09:27:48;100564.57;;;22.63;29.58
44441;BME280;30146;52.268;20.944;2023-04-30T09:30:38;100570.25;;;22.64;29.63
44441;BME280;30146;52.268;20.944;2023-04-30T09:33:15;100563.86;;;22.63;29.77
44441;BME280;30146;52.268;20.944;2023-04-30T09:40:49;100568.65;;;22.52;29.23
44441;BME280;30146;52.268;20.944;2023-04-30T09:43:45;100570.22;;;22.53;28.98
44441;BME280;30146;52.268;20.944;2023-04-30T09:46:30;100571.63;;;22.46;28.66
44441;BME280;30146;52.268;20.944;2023-04-30T09:49:07;100573.63;;;22.41;28.74
44441;BME280;30146;52.268;20.944;2023-04-30T09:51:57;100575.56;;;22.37;28.77
44441;BME280;30146;52.268;20.944;2023-04-30T09:54:31;100571.85;;;22.35;28.87
44441;BME280;30146;52.268;20.944;2023-04-30T09:57:04;100571.66;;;22.23;28.38
44441;BME280;30146;52.268;20.944;2023-04-30T09:59:44;100567.41;;;22.07;28.61
44441;BME280;30146;52.268;20.944;2023-04-30T10:02:16;100569.63;;;21.95;28.66
44441;BME280;30146;52.268;20.944;2023-04-30T10:04:53;100573.68;;;21.91;28.90
44441;BME280;30146;52.268;20.944;2023-04-30T10:07:35;100571.95;;;21.90;28.82
44441;BME280;30146;52.268;20.944;2023-04-30T10:10:10;100566.63;;;21.89;28.80
44441;BME280;30146;52.268;20.944;2023-04-30T10:13:10;100560.12;;;21.84;28.32
44441;BME280;30146;52.268;20.944;2023-04-30T10:16:17;100556.37;;;21.66;28.39
44441;BME280;30146;52.268;20.944;2023-04-30T10:18:53;100562.10;;;21.53;28.47
44441;BME280;30146;52.268;20.944;2023-04-30T10:21:25;100565.92;;;21.46;28.78
44441;BME280;30146;52.268;20.944;2023-04-30T10:23:56;100565.42;;;21.46;29.12
44441;BME280;30146;52.268;20.944;2023-04-30T10:26:31;100565.65;;;21.48;28.99
44441;BME280;30146;52.268;20.944;2023-04-30T10:29:03;100559.67;;;21.46;28.70
44441;BME280;30146;52.268;20.944;2023-04-30T10:31:36;100560.77;;;21.44;28.64
44441;BME280;30146;52.268;20.944;2023-04-30T10:34:13;100565.77;;;21.39;28.52
44441;BME280;30146;52.268;20.944;2023-04-30T10:36:49;100558.91;;;21.30;28.46
44441;BME280;30146;52.268;20.944;2023-04-30T10:39:22;100560.11;;;21.23;28.43
44441;BME280;30146;52.268;20.944;2023-04-30T10:42:06;100558.20;;;21.13;28.44
44441;BME280;30146;52.268;20.944;2023-04-30T10:44:42;100561.88;;;21.01;28.39
44441;BME280;30146;52.268;20.944;2023-04-30T10:47:14;100563.27;;;20.94;28.60
44441;BME280;30146;52.268;20.944;2023-04-30T10:49:49;100560.50;;;20.87;28.42
44441;BME280;30146;52.268;20.944;2023-04-30T10:52:29;100560.26;;;20.82;28.95
44441;BME280;30146;52.268;20.944;2023-04-30T10:55:05;100563.46;;;20.80;28.82
44441;BME280;30146;52.268;20.944;2023-04-30T10:57:42;100561.77;;;20.72;28.80
44441;BME280;30146;52.268;20.944;2023-04-30T11:00:23;100567.61;;;20.66;28.82
44441;BME280;30146;52.268;20.944;2023-04-30T11:03:11;100567.25;;;20.54;28.40
44441;BME280;30146;52.268;20.944;2023-04-30T11:05:46;100566.77;;;20.42;28.42
44441;BME280;30146;52.268;20.944;2023-04-30T11:08:17;100564.17;;;20.35;28.51
44441;BME280;30146;52.268;20.944;2023-04-30T11:10:59;100570.56;;;20.28;28.38
44441;BME280;30146;52.268;20.944;2023-04-30T11:13:42;100572.84;;;20.16;28.07
44441;BME280;30146;52.268;20.944;2023-04-30T11:16:23;100566.75;;;20.01;27.77
44441;BME280;30146;52.268;20.944;2023-04-30T11:19:14;100570.39;;;19.78;28.38
44441;BME280;30146;52.268;20.944;2023-04-30T11:30:22;100580.84;;;19.40;28.76
44441;BME280;30146;52.268;20.944;2023-04-30T11:33:39;100581.88;;;19.32;28.77
44441;BME280;30146;52.268;20.944;2023-04-30T11:36:10;100584.64;;;19.28;29.06
44441;BME280;30146;52.268;20.944;2023-04-30T11:38:44;100579.81;;;19.19;28.92
44441;BME280;30146;52.268;20.944;2023-04-30T11:41:19;100581.02;;;19.15;29.11
44441;BME280;30146;52.268;20.944;2023-04-30T11:44:01;100582.86;;;19.08;29.25
44441;BME280;30146;52.268;20.944;2023-04-30T11:46:32;100584.77;;;18.99;29.09
44441;BME280;30146;52.268;20.944;2023-04-30T11:49:11;100594.96;;;18.91;29.21
44441;BME280;30146;52.268;20.944;2023-04-30T11:51:42;100594.20;;;18.84;29.10
44441;BME280;30146;52.268;20.944;2023-04-30T11:54:24;100598.39;;;18.74;28.96
44441;BME280;30146;52.268;20.944;2023-04-30T11:56:56;100598.23;;;18.65;29.18
44441;BME280;30146;52.268;20.944;2023-04-30T11:59:40;100596.15;;;18.60;29.37
44441;BME280;30146;52.268;20.944;2023-04-30T12:02:19;100593.22;;;18.56;29.48
44441;BME280;30146;52.268;20.944;2023-04-30T12:04:51;100588.02;;;18.46;29.18
44441;BME280;30146;52.268;20.944;2023-04-30T12:07:22;100595.22;;;18.34;29.21
44441;BME280;30146;52.268;20.944;2023-04-30T12:09:54;100599.16;;;18.27;29.26
44441;BME280;30146;52.268;20.944;2023-04-30T12:12:35;100611.75;;;18.18;29.48
44441;BME280;30146;52.268;20.944;2023-04-30T12:15:14;100611.49;;;18.11;29.66
44441;BME280;30146;52.268;20.944;2023-04-30T12:17:55;100605.80;;;18.06;29.65
44441;BME280;30146;52.268;20.944;2023-04-30T12:20:34;100601.05;;;18.03;29.74
44441;BME280;30146;52.268;20.944;2023-04-30T12:23:06;100606.81;;;18.02;29.83
44441;BME280;30146;52.268;20.944;2023-04-30T12:25:43;100601.42;;;17.97;29.75
44441;BME280;30146;52.268;20.944;2023-04-30T12:28:24;100605.82;;;17.96;29.39
44441;BME280;30146;52.268;20.944;2023-04-30T12:30:59;100603.48;;;17.88;29.35
44441;BME280;30146;52.268;20.944;2023-04-30T12:33:41;100605.26;;;17.81;29.42
44441;BME280;30146;52.268;20.944;2023-04-30T12:36:13;100602.92;;;17.79;29.75
44441;BME280;30146;52.268;20.944;2023-04-30T12:38:45;100604.21;;;17.77;29.97
44441;BME280;30146;52.268;20.944;2023-04-30T12:41:29;100604.45;;;17.75;30.01
44441;BME280;30146;52.268;20.944;2023-04-30T12:44:17;100602.27;;;17.73;29.96
44441;BME280;30146;52.268;20.944;2023-04-30T12:47:12;100602.44;;;17.73;30.24
44441;BME280;30146;52.268;20.944;2023-04-30T12:49:51;100602.63;;;17.73;30.32
44441;BME280;30146;52.268;20.944;2023-04-30T12:52:26;100597.17;;;17.70;30.24
44441;BME280;30146;52.268;20.944;2023-04-30T12:54:57;100592.80;;;17.67;30.46
44441;BME280;30146;52.268;20.944;2023-04-30T12:58:06;100597.89;;;17.65;30.35
44441;BME280;30146;52.268;20.944;2023-04-30T13:00:52;100595.80;;;17.60;30.26
44441;BME280;30146;52.268;20.944;2023-04-30T13:03:26;100594.69;;;17.62;30.19
44441;BME280;30146;52.268;20.944;2023-04-30T13:06:01;100592.29;;;17.62;30.11
44441;BME280;30146;52.268;20.944;2023-04-30T13:08:33;100590.64;;;17.59;29.99
44441;BME280;30146;52.268;20.944;2023-04-30T13:11:17;100583.87;;;17.55;30.20
44441;BME280;30146;52.268;20.944;2023-04-30T13:13:48;100580.08;;;17.49;30.06
44441;BME280;30146;52.268;20.944;2023-04-30T13:16:19;100581.88;;;17.43;30.08
44441;BME280;30146;52.268;20.944;2023-04-30T13:18:50;100587.80;;;17.36;30.04
44441;BME280;30146;52.268;20.944;2023-04-30T13:21:20;100591.41;;;17.31;30.02
44441;BME280;30146;52.268;20.944;2023-04-30T13:23:52;100587.83;;;17.24;30.07
44441;BME280;30146;52.268;20.944;2023-04-30T13:26:25;100580.08;;;17.19;30.22
44441;BME280;30146;52.268;20.944;2023-04-30T13:28:57;100582.56;;;17.11;30.05
44441;BME280;30146;52.268;20.944;2023-04-30T13:31:28;100592.44;;;17.05;30.04
44441;BME280;30146;52.268;20.944;2023-04-30T13:33:59;100581.52;;;17.01;30.01